sensor_id;sensor_type;location;lat;lon;timestamp;temperature;humidity
16479;DHT22;8350;52.316;10.530;2023-05-07T00:00:01;9.60;99.90
16479;DHT22;8350;52.316;10.530;2023-05-07T00:02:29;9.60;99.90
16479;DHT22;8350;52.316;10.530;2023-05-07T00:04:57;9.60;99.90
16479;DHT22;8350;52.316;10.530;2023-05-07T00:07:25;9.60;99.90
16479;DHT22;8350;52.316;10.530;2023-05-07T00:09:51;9.50;99.90
16479;DHT22;8350;52.316;10.530;2023-05-07T00:12:18;9.60;99.90
16479;DHT22;8350;52.316;10.530;2023-05-07T00:14:45;9.60;99.90
16479;DHT22;8350;52.316;10.530;2023-05-07T00:17:12;9.60;99.90
16479;DHT22;8350;52.316;10.530;2023-05-07T00:19:41;9.60;99.90
16479;DHT22;8350;52.316;10.530;2023-05-07T00:22:10;9.60;99.90
16479;DHT22;8350;52.316;10.530;2023-05-07T00:24:37;9.60;99.90
16479;DHT22;8350;52.316;10.530;2023-05-07T00:27:04;9.60;99.90
16479;DHT22;8350;52.316;10.530;2023-05-07T00:29:31;9.60;99.90
16479;DHT22;8350;52.316;10.530;2023-05-07T00:31:57;9.60;99.90
16479;DHT22;8350;52.316;10.530;2023-05-07T00:34:24;9.60;99.90
16479;DHT22;8350;52.316;10.530;2023-05-07T00:36:51;9.60;99.90
16479;DHT22;8350;52.316;10.530;2023-05-07T00:39:20;9.60;99.90
16479;DHT22;8350;52.316;10.530;2023-05-07T00:41:47;9.60;99.90
16479;DHT22;8350;52.316;10.530;2023-05-07T00:44:13;9.60;99.90
16479;DHT22;8350;52.316;10.530;2023-05-07T00:46:43;9.60;99.90
16479;DHT22;8350;52.316;10.530;2023-05-07T00:49:11;9.50;99.90
16479;DHT22;8350;52.316;10.530;2023-05-07T00:51:38;9.60;99.90
16479;DHT22;8350;52.316;10.530;2023-05-07T00:54:05;9.60;99.90
16479;DHT22;8350;52.316;10.530;2023-05-07T00:56:34;9.60;99.90
16479;DHT22;8350;52.316;10.530;2023-05-07T00:59:01;9.60;99.90
16479;DHT22;8350;52.316;10.530;2023-05-07T01:01:28;9.60;99.90
16479;DHT22;8350;52.316;10.530;2023-05-07T01:03:55;9.50;99.90
16479;DHT22;8350;52.316;10.530;2023-05-07T01:06:23;9.50;99.90
16479;DHT22;8350;52.316;10.530;2023-05-07T01:08:54;9.50;99.90
16479;DHT22;8350;52.316;10.530;2023-05-07T01:11:22;9.50;99.90
16479;DHT22;8350;52.316;10.530;2023-05-07T01:13:51;9.50;99.90
16479;DHT22;8350;52.316;10.530;2023-05-07T01:16:18;9.40;99.90
16479;DHT22;8350;52.316;10.530;2023-05-07T01:18:45;9.40;99.90
16479;DHT22;8350;52.316;10.530;2023-05-07T01:21:16;9.50;99.90
16479;DHT22;8350;52.316;10.530;2023-05-07T01:23:46;9.50;99.90
16479;DHT22;8350;52.316;10.530;2023-05-07T01:26:16;9.50;99.90
16479;DHT22;8350;52.316;10.530;2023-05-07T01:28:45;9.50;99.90
16479;DHT22;8350;52.316;10.530;2023-05-07T01:31:12;9.50;99.90
16479;DHT22;8350;52.316;10.530;2023-05-07T01:33:43;9.50;99.90
16479;DHT22;8350;52.316;10.530;2023-05-07T01:36:11;9.50;99.90
16479;DHT22;8350;52.316;10.530;2023-05-07T01:38:40;9.40;99.90
16479;DHT22;8350;52.316;10.530;2023-05-07T01:41:09;9.40;99.90
16479;DHT22;8350;52.316;10.530;2023-05-07T01:43:36;9.40;99.90
16479;DHT22;8350;52.316;10.530;2023-05-07T01:46:04;9.40;99.90
16479;DHT22;8350;52.316;10.530;2023-05-07T01:48:31;9.40;99.90
16479;DHT22;8350;52.316;10.530;2023-05-07T01:50:59;9.40;99.90
16479;DHT22;8350;52.316;10.530;2023-05-07T01:53:27;9.40;99.90
16479;DHT22;8350;52.316;10.530;2023-05-07T01:55:54;9.30;99.90
16479;DHT22;8350;52.316;10.530;2023-05-07T01:58:23;9.30;99.90
16479;DHT22;8350;52.316;10.530;2023-05-07T02:00:50;9.30;99.90
16479;DHT22;8350;52.316;10.530;2023-05-07T02:03:17;9.30;99.90
16479;DHT22;8350;52.316;10.530;2023-05-07T02:05:44;9.30;99.90
16479;DHT22;8350;52.316;10.530;2023-05-07T02:08:11;9.30;99.90
16479;DHT22;8350;52.316;10.530;2023-05-07T02:10:38;9.30;99.90
16479;DHT22;8350;52.316;10.530;2023-05-07T02:13:05;9.30;99.90
16479;DHT22;8350;52.316;10.530;2023-05-07T02:15:33;9.30;99.90
16479;DHT22;8350;52.316;10.530;2023-05-07T02:18:02;9.30;99.90
16479;DHT22;8350;52.316;10.530;2023-05-07T02:20:32;9.40;99.90
16479;DHT22;8350;52.316;10.530;2023-05-07T02:22:59;9.30;99.90
16479;DHT22;8350;52.316;10.530;2023-05-07T02:25:28;9.30;99.90
16479;DHT22;8350;52.316;10.530;2023-05-07T02:27:55;9.30;99.90
16479;DHT22;8350;52.316;10.530;2023-05-07T02:30:24;9.30;99.90
16479;DHT22;8350;52.316;10.530;2023-05-07T02:32:53;9.20;99.90
16479;DHT22;8350;52.316;10.530;2023-05-07T02:35:20;9.30;99.90
16479;DHT22;8350;52.316;10.530;2023-05-07T02:37:47;9.20;99.90
16479;DHT22;8350;52.316;10.530;2023-05-07T02:40:14;9.30;99.90
16479;DHT22;8350;52.316;10.530;2023-05-07T02:42:41;9.30;99.90
16479;DHT22;8350;52.316;10.530;2023-05-07T02:45:09;9.30;99.90
16479;DHT22;8350;52.316;10.530;2023-05-07T02:47:36;9.20;99.90
16479;DHT22;8350;52.316;10.530;2023-05-07T02:50:06;9.30;99.90
16479;DHT22;8350;52.316;10.530;2023-05-07T02:52:33;9.20;99.90
16479;DHT22;8350;52.316;10.530;2023-05-07T02:55:00;9.20;99.90
16479;DHT22;8350;52.316;10.530;2023-05-07T02:57:28;9.20;99.90
16479;DHT22;8350;52.316;10.530;2023-05-07T02:59:55;9.10;99.90
16479;DHT22;8350;52.316;10.530;2023-05-07T03:02:22;9.10;99.90
16479;DHT22;8350;52.316;10.530;2023-05-07T03:04:49;9.20;99.90
16479;DHT22;8350;52.316;10.530;2023-05-07T03:07:17;9.10;99.90
16479;DHT22;8350;52.316;10.530;2023-05-07T03:09:44;9.10;99.90
16479;DHT22;8350;52.316;10.530;2023-05-07T03:12:11;9.10;99.90
16479;DHT22;8350;52.316;10.530;2023-05-07T03:14:38;9.10;99.90
16479;DHT22;8350;52.316;10.530;2023-05-07T03:17:05;9.20;99.90
16479;DHT22;8350;52.316;10.530;2023-05-07T03:19:32;9.20;99.90
16479;DHT22;8350;52.316;10.530;2023-05-07T03:21:58;9.10;99.90
16479;DHT22;8350;52.316;10.530;2023-05-07T03:24:27;9.10;99.90
16479;DHT22;8350;52.316;10.530;2023-05-07T03:26:54;9.00;99.90
16479;DHT22;8350;52.316;10.530;2023-05-07T03:29:21;9.00;99.90
16479;DHT22;8350;52.316;10.530;2023-05-07T03:31:48;9.00;99.90
16479;DHT22;8350;52.316;10.530;2023-05-07T03:34:15;9.00;99.90
16479;DHT22;8350;52.316;10.530;2023-05-07T03:36:47;9.00;99.90
16479;DHT22;8350;52.316;10.530;2023-05-07T03:39:14;9.00;99.90
16479;DHT22;8350;52.316;10.530;2023-05-07T03:41:43;9.00;99.90
16479;DHT22;8350;52.316;10.530;2023-05-07T03:44:10;8.90;99.90
16479;DHT22;8350;52.316;10.530;2023-05-07T03:46:38;9.00;99.90
16479;DHT22;8350;52.316;10.530;2023-05-07T03:49:04;8.90;99.90
16479;DHT22;8350;52.316;10.530;2023-05-07T03:51:31;8.90;99.90
16479;DHT22;8350;52.316;10.530;2023-05-07T03:53:58;8.90;99.90
16479;DHT22;8350;52.316;10.530;2023-05-07T03:56:25;8.90;99.90
16479;DHT22;8350;52.316;10.530;2023-05-07T03:58:54;8.90;99.90
16479;DHT22;8350;52.316;10.530;2023-05-07T04:01:21;8.90;64.80
16479;DHT22;8350;52.316;10.530;2023-05-07T04:03:48;8.90;71.20
16479;DHT22;8350;52.316;10.530;2023-05-07T04:06:15;9.00;70.30
16479;DHT22;8350;52.316;10.530;2023-05-07T04:08:43;8.90;68.90
16479;DHT22;8350;52.316;10.530;2023-05-07T04:11:10;8.90;79.80
16479;DHT22;8350;52.316;10.530;2023-05-07T04:13:37;8.90;91.40
16479;DHT22;8350;52.316;10.530;2023-05-07T04:16:06;8.90;94.30
16479;DHT22;8350;52.316;10.530;2023-05-07T04:18:33;8.90;99.80
16479;DHT22;8350;52.316;10.530;2023-05-07T04:21:00;8.90;99.90
16479;DHT22;8350;52.316;10.530;2023-05-07T04:23:29;8.90;99.90
16479;DHT22;8350;52.316;10.530;2023-05-07T04:25:56;8.90;99.90
16479;DHT22;8350;52.316;10.530;2023-05-07T04:28:23;8.90;96.20
16479;DHT22;8350;52.316;10.530;2023-05-07T04:30:50;8.90;93.90
16479;DHT22;8350;52.316;10.530;2023-05-07T04:33:18;9.00;93.80
16479;DHT22;8350;52.316;10.530;2023-05-07T04:35:45;8.90;94.10
16479;DHT22;8350;52.316;10.530;2023-05-07T04:38:12;9.00;98.10
16479;DHT22;8350;52.316;10.530;2023-05-07T04:40:39;9.00;88.60
16479;DHT22;8350;52.316;10.530;2023-05-07T04:43:06;9.00;95.80
16479;DHT22;8350;52.316;10.530;2023-05-07T04:45:34;9.00;92.80
16479;DHT22;8350;52.316;10.530;2023-05-07T04:48:01;9.00;94.60
16479;DHT22;8350;52.316;10.530;2023-05-07T04:50:30;9.00;97.70
16479;DHT22;8350;52.316;10.530;2023-05-07T04:52:57;9.10;99.90
16479;DHT22;8350;52.316;10.530;2023-05-07T04:55:24;9.10;99.90
16479;DHT22;8350;52.316;10.530;2023-05-07T04:57:52;9.10;92.80
16479;DHT22;8350;52.316;10.530;2023-05-07T05:00:19;9.20;91.60
16479;DHT22;8350;52.316;10.530;2023-05-07T05:02:46;9.20;91.70
16479;DHT22;8350;52.316;10.530;2023-05-07T05:05:13;9.20;85.50
16479;DHT22;8350;52.316;10.530;2023-05-07T05:07:44;9.20;91.10
16479;DHT22;8350;52.316;10.530;2023-05-07T05:10:11;9.30;86.00
16479;DHT22;8350;52.316;10.530;2023-05-07T05:12:38;9.30;65.90
16479;DHT22;8350;52.316;10.530;2023-05-07T05:15:06;9.40;57.40
16479;DHT22;8350;52.316;10.530;2023-05-07T05:17:33;9.30;36.10
16479;DHT22;8350;52.316;10.530;2023-05-07T05:20:02;9.40;37.70
16479;DHT22;8350;52.316;10.530;2023-05-07T05:22:29;9.40;28.90
16479;DHT22;8350;52.316;10.530;2023-05-07T05:24:58;9.40;14.30
16479;DHT22;8350;52.316;10.530;2023-05-07T05:27:26;9.40;21.20
16479;DHT22;8350;52.316;10.530;2023-05-07T05:29:53;9.40;9.70
16479;DHT22;8350;52.316;10.530;2023-05-07T05:32:20;9.40;13.00
16479;DHT22;8350;52.316;10.530;2023-05-07T05:34:47;9.40;10.10
16479;DHT22;8350;52.316;10.530;2023-05-07T05:37:14;9.40;8.60
16479;DHT22;8350;52.316;10.530;2023-05-07T05:39:41;9.50;12.00
16479;DHT22;8350;52.316;10.530;2023-05-07T05:42:10;9.50;14.10
16479;DHT22;8350;52.316;10.530;2023-05-07T05:44:37;9.50;19.30
16479;DHT22;8350;52.316;10.530;2023-05-07T05:47:04;9.60;3.00
16479;DHT22;8350;52.316;10.530;2023-05-07T05:49:30;9.60;4.40
16479;DHT22;8350;52.316;10.530;2023-05-07T05:51:58;9.60;5.10
16479;DHT22;8350;52.316;10.530;2023-05-07T05:54:24;9.60;1.00
16479;DHT22;8350;52.316;10.530;2023-05-07T05:56:51;9.60;1.00
16479;DHT22;8350;52.316;10.530;2023-05-07T05:59:20;9.60;8.90
16479;DHT22;8350;52.316;10.530;2023-05-07T06:01:50;9.60;4.20
16479;DHT22;8350;52.316;10.530;2023-05-07T06:04:17;9.60;8.80
16479;DHT22;8350;52.316;10.530;2023-05-07T06:06:44;9.60;14.30
16479;DHT22;8350;52.316;10.530;2023-05-07T06:09:11;9.60;5.90
16479;DHT22;8350;52.316;10.530;2023-05-07T06:11:38;9.60;4.30
16479;DHT22;8350;52.316;10.530;2023-05-07T06:14:06;9.60;12.00
16479;DHT22;8350;52.316;10.530;2023-05-07T06:16:34;9.60;4.20
16479;DHT22;8350;52.316;10.530;2023-05-07T06:19:03;9.70;2.90
16479;DHT22;8350;52.316;10.530;2023-05-07T06:21:30;9.70;1.00
16479;DHT22;8350;52.316;10.530;2023-05-07T06:23:57;9.70;8.30
16479;DHT22;8350;52.316;10.530;2023-05-07T06:26:26;9.80;2.90
16479;DHT22;8350;52.316;10.530;2023-05-07T06:28:53;9.80;2.70
16479;DHT22;8350;52.316;10.530;2023-05-07T06:31:20;9.90;1.00
16479;DHT22;8350;52.316;10.530;2023-05-07T06:33:49;9.90;1.00
16479;DHT22;8350;52.316;10.530;2023-05-07T06:36:16;9.90;1.00
16479;DHT22;8350;52.316;10.530;2023-05-07T06:38:43;9.80;1.00
16479;DHT22;8350;52.316;10.530;2023-05-07T06:41:09;9.70;1.00
16479;DHT22;8350;52.316;10.530;2023-05-07T06:43:36;9.80;1.00
16479;DHT22;8350;52.316;10.530;2023-05-07T06:46:03;9.80;1.30
16479;DHT22;8350;52.316;10.530;2023-05-07T06:48:30;9.80;1.00
16479;DHT22;8350;52.316;10.530;2023-05-07T06:50:58;9.90;1.00
16479;DHT22;8350;52.316;10.530;2023-05-07T06:53:25;9.90;1.00
16479;DHT22;8350;52.316;10.530;2023-05-07T06:55:53;9.90;1.00
16479;DHT22;8350;52.316;10.530;2023-05-07T06:58:20;9.90;1.00
16479;DHT22;8350;52.316;10.530;2023-05-07T07:00:50;10.00;1.00
16479;DHT22;8350;52.316;10.530;2023-05-07T07:03:17;10.00;1.00
16479;DHT22;8350;52.316;10.530;2023-05-07T07:05:43;10.00;1.00
16479;DHT22;8350;52.316;10.530;2023-05-07T07:08:12;10.10;1.00
16479;DHT22;8350;52.316;10.530;2023-05-07T07:10:40;10.10;1.00
16479;DHT22;8350;52.316;10.530;2023-05-07T07:13:07;10.00;1.00
16479;DHT22;8350;52.316;10.530;2023-05-07T07:15:34;10.10;1.00
16479;DHT22;8350;52.316;10.530;2023-05-07T07:18:01;10.00;1.00
16479;DHT22;8350;52.316;10.530;2023-05-07T07:20:30;10.00;1.00
16479;DHT22;8350;52.316;10.530;2023-05-07T07:22:57;10.00;1.00
16479;DHT22;8350;52.316;10.530;2023-05-07T07:25:25;9.90;1.00
16479;DHT22;8350;52.316;10.530;2023-05-07T07:27:52;9.90;1.00
16479;DHT22;8350;52.316;10.530;2023-05-07T07:30:19;9.90;1.00
16479;DHT22;8350;52.316;10.530;2023-05-07T07:32:46;9.90;1.00
16479;DHT22;8350;52.316;10.530;2023-05-07T07:35:13;9.80;1.00
16479;DHT22;8350;52.316;10.530;2023-05-07T07:37:40;9.90;1.00
16479;DHT22;8350;52.316;10.530;2023-05-07T07:40:08;9.90;1.00
16479;DHT22;8350;52.316;10.530;2023-05-07T07:42:36;10.00;1.00
16479;DHT22;8350;52.316;10.530;2023-05-07T07:45:04;9.90;1.00
16479;DHT22;8350;52.316;10.530;2023-05-07T07:47:31;9.90;1.00
16479;DHT22;8350;52.316;10.530;2023-05-07T07:49:58;9.90;1.00
16479;DHT22;8350;52.316;10.530;2023-05-07T07:52:25;9.90;1.00
16479;DHT22;8350;52.316;10.530;2023-05-07T07:54:51;9.90;1.00
16479;DHT22;8350;52.316;10.530;2023-05-07T07:57:18;9.90;1.00
16479;DHT22;8350;52.316;10.530;2023-05-07T07:59:47;10.00;1.00
16479;DHT22;8350;52.316;10.530;2023-05-07T08:02:13;10.00;1.00
16479;DHT22;8350;52.316;10.530;2023-05-07T08:04:40;10.10;1.00
16479;DHT22;8350;52.316;10.530;2023-05-07T08:07:08;10.10;1.00
16479;DHT22;8350;52.316;10.530;2023-05-07T08:09:36;10.10;1.00
16479;DHT22;8350;52.316;10.530;2023-05-07T08:12:03;10.20;1.00
16479;DHT22;8350;52.316;10.530;2023-05-07T08:14:31;10.20;1.00
16479;DHT22;8350;52.316;10.530;2023-05-07T08:17:01;10.30;1.00
16479;DHT22;8350;52.316;10.530;2023-05-07T08:19:28;10.30;1.00
16479;DHT22;8350;52.316;10.530;2023-05-07T08:21:55;10.40;1.00
16479;DHT22;8350;52.316;10.530;2023-05-07T08:24:22;10.40;1.00
16479;DHT22;8350;52.316;10.530;2023-05-07T08:26:49;10.50;1.00
16479;DHT22;8350;52.316;10.530;2023-05-07T08:29:16;10.50;1.00
16479;DHT22;8350;52.316;10.530;2023-05-07T08:31:55;10.50;1.00
16479;DHT22;8350;52.316;10.530;2023-05-07T08:34:29;10.50;1.00
16479;DHT22;8350;52.316;10.530;2023-05-07T08:36:56;10.50;1.00
16479;DHT22;8350;52.316;10.530;2023-05-07T08:39:23;10.60;1.00
16479;DHT22;8350;52.316;10.530;2023-05-07T08:41:55;10.60;1.00
16479;DHT22;8350;52.316;10.530;2023-05-07T08:44:26;10.60;1.00
16479;DHT22;8350;52.316;10.530;2023-05-07T08:46:56;10.70;1.00
16479;DHT22;8350;52.316;10.530;2023-05-07T08:49:24;10.80;1.00
16479;DHT22;8350;52.316;10.530;2023-05-07T08:51:52;10.80;1.00
16479;DHT22;8350;52.316;10.530;2023-05-07T08:54:20;10.80;1.00
16479;DHT22;8350;52.316;10.530;2023-05-07T08:56:47;10.80;1.00
16479;DHT22;8350;52.316;10.530;2023-05-07T08:59:14;10.90;1.00
16479;DHT22;8350;52.316;10.530;2023-05-07T09:01:41;11.00;1.00
16479;DHT22;8350;52.316;10.530;2023-05-07T09:04:09;11.10;1.00
16479;DHT22;8350;52.316;10.530;2023-05-07T09:06:37;11.00;1.00
16479;DHT22;8350;52.316;10.530;2023-05-07T09:09:07;11.00;1.00
16479;DHT22;8350;52.316;10.530;2023-05-07T09:11:37;11.10;1.00
16479;DHT22;8350;52.316;10.530;2023-05-07T09:14:04;11.20;1.00
16479;DHT22;8350;52.316;10.530;2023-05-07T09:16:34;11.30;1.00
16479;DHT22;8350;52.316;10.530;2023-05-07T09:19:01;11.40;1.00
16479;DHT22;8350;52.316;10.530;2023-05-07T09:21:41;11.30;1.00
16479;DHT22;8350;52.316;10.530;2023-05-07T09:24:11;11.10;1.00
16479;DHT22;8350;52.316;10.530;2023-05-07T09:26:39;11.20;1.00
16479;DHT22;8350;52.316;10.530;2023-05-07T09:29:06;11.20;1.00
16479;DHT22;8350;52.316;10.530;2023-05-07T09:31:39;11.20;1.00
16479;DHT22;8350;52.316;10.530;2023-05-07T09:34:09;11.20;1.00
16479;DHT22;8350;52.316;10.530;2023-05-07T09:36:36;11.30;1.00
16479;DHT22;8350;52.316;10.530;2023-05-07T09:39:07;11.40;1.00
16479;DHT22;8350;52.316;10.530;2023-05-07T09:41:43;11.50;1.00
16479;DHT22;8350;52.316;10.530;2023-05-07T09:44:10;11.60;1.00
16479;DHT22;8350;52.316;10.530;2023-05-07T09:46:42;11.60;1.00
16479;DHT22;8350;52.316;10.530;2023-05-07T09:49:13;11.80;1.00
16479;DHT22;8350;52.316;10.530;2023-05-07T09:51:47;11.80;1.00
16479;DHT22;8350;52.316;10.530;2023-05-07T09:54:16;11.90;1.00
16479;DHT22;8350;52.316;10.530;2023-05-07T09:56:44;12.00;1.00
16479;DHT22;8350;52.316;10.530;2023-05-07T09:59:16;11.80;1.00
16479;DHT22;8350;52.316;10.530;2023-05-07T10:01:44;11.90;1.00
16479;DHT22;8350;52.316;10.530;2023-05-07T10:04:12;11.90;1.00
16479;DHT22;8350;52.316;10.530;2023-05-07T10:06:39;12.00;1.00
16479;DHT22;8350;52.316;10.530;2023-05-07T10:09:10;12.00;1.00
16479;DHT22;8350;52.316;10.530;2023-05-07T10:11:40;12.10;1.00
16479;DHT22;8350;52.316;10.530;2023-05-07T10:14:08;12.20;1.00
16479;DHT22;8350;52.316;10.530;2023-05-07T10:16:37;12.30;1.00
16479;DHT22;8350;52.316;10.530;2023-05-07T10:19:04;12.50;1.00
16479;DHT22;8350;52.316;10.530;2023-05-07T10:21:36;12.50;1.00
16479;DHT22;8350;52.316;10.530;2023-05-07T10:24:31;12.50;1.00
16479;DHT22;8350;52.316;10.530;2023-05-07T10:27:02;12.50;1.00
16479;DHT22;8350;52.316;10.530;2023-05-07T10:29:37;12.40;1.00
16479;DHT22;8350;52.316;10.530;2023-05-07T10:32:28;12.50;1.00
16479;DHT22;8350;52.316;10.530;2023-05-07T10:35:00;12.40;1.00
16479;DHT22;8350;52.316;10.530;2023-05-07T10:37:29;12.30;1.00
16479;DHT22;8350;52.316;10.530;2023-05-07T10:39:56;12.20;1.00
16479;DHT22;8350;52.316;10.530;2023-05-07T10:42:25;12.30;1.00
16479;DHT22;8350;52.316;10.530;2023-05-07T10:44:52;12.20;1.00
16479;DHT22;8350;52.316;10.530;2023-05-07T10:47:19;12.20;1.00
16479;DHT22;8350;52.316;10.530;2023-05-07T10:50:19;12.30;1.00
16479;DHT22;8350;52.316;10.530;2023-05-07T10:53:24;12.30;1.00
16479;DHT22;8350;52.316;10.530;2023-05-07T10:59:45;12.50;1.00
16479;DHT22;8350;52.316;10.530;2023-05-07T11:02:14;12.70;1.00
16479;DHT22;8350;52.316;10.530;2023-05-07T11:04:41;12.80;1.00
16479;DHT22;8350;52.316;10.530;2023-05-07T11:07:35;12.70;1.00
16479;DHT22;8350;52.316;10.530;2023-05-07T11:10:04;12.60;1.00
16479;DHT22;8350;52.316;10.530;2023-05-07T11:12:53;12.50;1.00
16479;DHT22;8350;52.316;10.530;2023-05-07T11:15:42;12.50;1.00
16479;DHT22;8350;52.316;10.530;2023-05-07T11:18:10;12.40;1.00
16479;DHT22;8350;52.316;10.530;2023-05-07T11:21:05;12.50;1.00
16479;DHT22;8350;52.316;10.530;2023-05-07T11:26:46;12.70;1.00
16479;DHT22;8350;52.316;10.530;2023-05-07T11:29:15;12.80;1.00
16479;DHT22;8350;52.316;10.530;2023-05-07T11:31:43;12.80;1.00
16479;DHT22;8350;52.316;10.530;2023-05-07T11:34:11;12.80;1.00
16479;DHT22;8350;52.316;10.530;2023-05-07T11:36:42;12.80;1.00
16479;DHT22;8350;52.316;10.530;2023-05-07T11:39:27;12.60;1.00
16479;DHT22;8350;52.316;10.530;2023-05-07T11:41:55;12.70;1.00
16479;DHT22;8350;52.316;10.530;2023-05-07T11:44:25;12.60;1.00
16479;DHT22;8350;52.316;10.530;2023-05-07T11:46:54;12.60;1.00
16479;DHT22;8350;52.316;10.530;2023-05-07T11:49:25;12.70;1.00
16479;DHT22;8350;52.316;10.530;2023-05-07T11:51:54;12.80;1.00
16479;DHT22;8350;52.316;10.530;2023-05-07T11:54:21;12.90;1.00
16479;DHT22;8350;52.316;10.530;2023-05-07T11:56:49;13.00;1.00
16479;DHT22;8350;52.316;10.530;2023-05-07T12:02:22;13.20;1.00
16479;DHT22;8350;52.316;10.530;2023-05-07T12:04:50;12.90;1.00
16479;DHT22;8350;52.316;10.530;2023-05-07T12:07:17;12.70;1.00
16479;DHT22;8350;52.316;10.530;2023-05-07T12:09:45;12.70;1.00
16479;DHT22;8350;52.316;10.530;2023-05-07T12:12:13;12.60;1.00
16479;DHT22;8350;52.316;10.530;2023-05-07T12:14:44;12.60;1.00
16479;DHT22;8350;52.316;10.530;2023-05-07T12:17:13;12.70;1.00
16479;DHT22;8350;52.316;10.530;2023-05-07T12:19:44;12.70;1.00
16479;DHT22;8350;52.316;10.530;2023-05-07T12:22:11;12.80;1.00
16479;DHT22;8350;52.316;10.530;2023-05-07T12:24:45;12.90;1.00
16479;DHT22;8350;52.316;10.530;2023-05-07T12:27:15;12.70;1.00
16479;DHT22;8350;52.316;10.530;2023-05-07T12:29:44;12.60;1.00
16479;DHT22;8350;52.316;10.530;2023-05-07T12:32:14;12.70;1.00
16479;DHT22;8350;52.316;10.530;2023-05-07T12:34:43;12.60;1.00
16479;DHT22;8350;52.316;10.530;2023-05-07T12:37:10;12.70;1.00
16479;DHT22;8350;52.316;10.530;2023-05-07T12:39:38;12.60;1.00
16479;DHT22;8350;52.316;10.530;2023-05-07T12:42:05;12.60;1.00
16479;DHT22;8350;52.316;10.530;2023-05-07T12:44:33;12.60;1.00
16479;DHT22;8350;52.316;10.530;2023-05-07T12:47:02;12.70;1.00
16479;DHT22;8350;52.316;10.530;2023-05-07T12:49:29;12.80;1.00
16479;DHT22;8350;52.316;10.530;2023-05-07T12:51:58;12.90;1.00
16479;DHT22;8350;52.316;10.530;2023-05-07T12:54:29;13.10;1.00
16479;DHT22;8350;52.316;10.530;2023-05-07T12:57:03;13.10;1.00
16479;DHT22;8350;52.316;10.530;2023-05-07T12:59:32;13.00;1.00
16479;DHT22;8350;52.316;10.530;2023-05-07T13:01:59;13.10;1.00
16479;DHT22;8350;52.316;10.530;2023-05-07T13:04:26;13.10;1.00
16479;DHT22;8350;52.316;10.530;2023-05-07T13:06:53;13.00;1.00
16479;DHT22;8350;52.316;10.530;2023-05-07T13:09:22;13.00;1.00
16479;DHT22;8350;52.316;10.530;2023-05-07T13:11:49;13.00;1.00
16479;DHT22;8350;52.316;10.530;2023-05-07T13:14:16;13.10;1.00
16479;DHT22;8350;52.316;10.530;2023-05-07T13:16:43;13.20;1.00
16479;DHT22;8350;52.316;10.530;2023-05-07T13:19:10;13.40;1.00
16479;DHT22;8350;52.316;10.530;2023-05-07T13:21:37;13.50;1.00
16479;DHT22;8350;52.316;10.530;2023-05-07T13:24:04;13.60;1.00
16479;DHT22;8350;52.316;10.530;2023-05-07T13:26:33;13.80;1.00
16479;DHT22;8350;52.316;10.530;2023-05-07T13:29:00;13.90;1.00
16479;DHT22;8350;52.316;10.530;2023-05-07T13:31:27;13.70;1.00
16479;DHT22;8350;52.316;10.530;2023-05-07T13:33:54;13.60;1.00
16479;DHT22;8350;52.316;10.530;2023-05-07T13:36:21;13.60;1.00
16479;DHT22;8350;52.316;10.530;2023-05-07T13:38:48;13.60;1.00
16479;DHT22;8350;52.316;10.530;2023-05-07T13:41:15;13.60;1.00
16479;DHT22;8350;52.316;10.530;2023-05-07T13:43:44;13.70;1.00
16479;DHT22;8350;52.316;10.530;2023-05-07T13:46:13;13.90;1.00
16479;DHT22;8350;52.316;10.530;2023-05-07T13:48:40;14.00;99.90
16479;DHT22;8350;52.316;10.530;2023-05-07T13:51:07;13.90;99.90
16479;DHT22;8350;52.316;10.530;2023-05-07T13:53:34;13.70;99.90
16479;DHT22;8350;52.316;10.530;2023-05-07T13:56:02;13.80;99.90
16479;DHT22;8350;52.316;10.530;2023-05-07T13:58:30;13.70;99.90
16479;DHT22;8350;52.316;10.530;2023-05-07T14:00:58;13.90;99.90
16479;DHT22;8350;52.316;10.530;2023-05-07T14:03:25;13.90;99.90
16479;DHT22;8350;52.316;10.530;2023-05-07T14:05:52;13.80;99.90
16479;DHT22;8350;52.316;10.530;2023-05-07T14:08:19;13.90;1.00
16479;DHT22;8350;52.316;10.530;2023-05-07T14:10:46;13.90;1.00
16479;DHT22;8350;52.316;10.530;2023-05-07T14:13:13;13.80;1.00
16479;DHT22;8350;52.316;10.530;2023-05-07T14:15:40;13.80;1.00
16479;DHT22;8350;52.316;10.530;2023-05-07T14:18:15;13.80;1.00
16479;DHT22;8350;52.316;10.530;2023-05-07T14:20:42;13.70;1.00
16479;DHT22;8350;52.316;10.530;2023-05-07T14:23:11;13.50;1.00
16479;DHT22;8350;52.316;10.530;2023-05-07T14:25:38;13.50;1.00
16479;DHT22;8350;52.316;10.530;2023-05-07T14:28:06;13.50;1.00
16479;DHT22;8350;52.316;10.530;2023-05-07T14:30:33;13.40;1.00
16479;DHT22;8350;52.316;10.530;2023-05-07T14:33:00;13.40;1.00
16479;DHT22;8350;52.316;10.530;2023-05-07T14:35:30;13.50;99.90
16479;DHT22;8350;52.316;10.530;2023-05-07T14:37:57;13.50;1.00
16479;DHT22;8350;52.316;10.530;2023-05-07T14:40:24;13.60;1.00
16479;DHT22;8350;52.316;10.530;2023-05-07T14:42:51;13.60;99.90
16479;DHT22;8350;52.316;10.530;2023-05-07T14:45:18;13.70;99.90
16479;DHT22;8350;52.316;10.530;2023-05-07T14:47:45;13.70;99.90
16479;DHT22;8350;52.316;10.530;2023-05-07T14:50:12;13.80;99.90
16479;DHT22;8350;52.316;10.530;2023-05-07T14:52:40;13.90;99.90
16479;DHT22;8350;52.316;10.530;2023-05-07T14:55:08;14.10;99.90
16479;DHT22;8350;52.316;10.530;2023-05-07T14:57:35;14.00;99.90
16479;DHT22;8350;52.316;10.530;2023-05-07T15:00:03;13.90;99.90
16479;DHT22;8350;52.316;10.530;2023-05-07T15:02:30;13.90;99.90
16479;DHT22;8350;52.316;10.530;2023-05-07T15:04:59;13.80;99.90
16479;DHT22;8350;52.316;10.530;2023-05-07T15:07:26;13.70;99.90
16479;DHT22;8350;52.316;10.530;2023-05-07T15:09:56;13.70;99.90
16479;DHT22;8350;52.316;10.530;2023-05-07T15:12:23;13.70;99.90
16479;DHT22;8350;52.316;10.530;2023-05-07T15:14:50;13.80;99.90
16479;DHT22;8350;52.316;10.530;2023-05-07T15:17:17;13.90;99.90
16479;DHT22;8350;52.316;10.530;2023-05-07T15:19:44;14.00;99.90
16479;DHT22;8350;52.316;10.530;2023-05-07T15:22:11;14.00;99.90
16479;DHT22;8350;52.316;10.530;2023-05-07T15:24:38;13.90;99.90
16479;DHT22;8350;52.316;10.530;2023-05-07T15:27:06;13.70;1.00
16479;DHT22;8350;52.316;10.530;2023-05-07T15:29:33;13.70;1.00
16479;DHT22;8350;52.316;10.530;2023-05-07T15:32:00;13.70;1.00
16479;DHT22;8350;52.316;10.530;2023-05-07T15:34:27;13.50;1.00
16479;DHT22;8350;52.316;10.530;2023-05-07T15:36:55;13.60;1.00
16479;DHT22;8350;52.316;10.530;2023-05-07T15:39:23;13.60;1.00
16479;DHT22;8350;52.316;10.530;2023-05-07T15:41:50;13.60;1.00
16479;DHT22;8350;52.316;10.530;2023-05-07T15:44:18;13.50;1.00
16479;DHT22;8350;52.316;10.530;2023-05-07T15:46:45;13.40;1.00
16479;DHT22;8350;52.316;10.530;2023-05-07T15:49:12;13.30;1.00
16479;DHT22;8350;52.316;10.530;2023-05-07T15:51:39;13.40;1.00
16479;DHT22;8350;52.316;10.530;2023-05-07T15:54:06;13.40;1.00
16479;DHT22;8350;52.316;10.530;2023-05-07T15:56:33;13.40;1.00
16479;DHT22;8350;52.316;10.530;2023-05-07T15:59:00;13.50;1.00
16479;DHT22;8350;52.316;10.530;2023-05-07T16:01:29;13.40;99.90
16479;DHT22;8350;52.316;10.530;2023-05-07T16:03:57;13.40;99.90